KBLI/BLI METAR and TAF weather

Enter ICAO airport designator
Station Type Date Time Source
KBLI METAR 2022/07/01 00:53 UTC NOAA

KBLI 010053Z VRB03KT 10SM CLR 23/12 A3007 RMK AO2 SLP187 T02280117


Station Type Date Time Source
KBLI Decoded METAR 2022/07/01 00:53 UTC NOAA

BELLINGHAM INTERNATIONAL AIRPORT, WA, United States (KBLI) 48-48N 122-32W 50M
Jun 30, 2022 - 08:53 PM EDT / 2022.07.01 0053 UTC
Wind: Variable at 3 MPH (3 KT):0
Visibility: 10 mile(s):0
Sky conditions: clear
Temperature: 73.0 F (22.8 C)
Dew Point: 53.1 F (11.7 C)
Relative Humidity: 49%
Pressure (altimeter): 30.07 in. Hg (1018 hPa)
ob: KBLI 010053Z VRB03KT 10SM CLR 23/12 A3007 RMK AO2 SLP187 T02280117
cycle: 1

Station Type Date Time Source
KBLI TAF 2022/06/30 18:33 UTC NOAA

TAF KBLI 301730Z 3018/0118 31005KT P6SM SCT250
FM302100 23006KT P6SM SCT200
FM010700 18010KT P6SM SCT200
FM011200 18008KT P6SM SKC

Example: see airport list